sensor_id;sensor_type;location;lat;lon;timestamp;P1;durP1;ratioP1;P2;durP2;ratioP2
37701;SDS011;23548;51.196;6.838;2022-08-02T00:01:41;11.55;;;7.07;;
37701;SDS011;23548;51.196;6.838;2022-08-02T00:04:07;9.90;;;6.63;;
37701;SDS011;23548;51.196;6.838;2022-08-02T00:06:33;8.48;;;6.63;;
37701;SDS011;23548;51.196;6.838;2022-08-02T00:09:00;12.85;;;7.05;;
37701;SDS011;23548;51.196;6.838;2022-08-02T00:11:26;10.63;;;6.85;;
37701;SDS011;23548;51.196;6.838;2022-08-02T00:13:51;11.60;;;7.43;;
37701;SDS011;23548;51.196;6.838;2022-08-02T00:16:18;10.90;;;6.78;;
37701;SDS011;23548;51.196;6.838;2022-08-02T00:18:43;11.13;;;7.00;;
37701;SDS011;23548;51.196;6.838;2022-08-02T00:21:09;11.85;;;7.05;;
37701;SDS011;23548;51.196;6.838;2022-08-02T00:23:35;12.00;;;7.15;;
37701;SDS011;23548;51.196;6.838;2022-08-02T00:26:01;12.32;;;7.10;;
37701;SDS011;23548;51.196;6.838;2022-08-02T00:28:26;9.55;;;6.07;;
37701;SDS011;23548;51.196;6.838;2022-08-02T00:30:52;13.50;;;7.35;;
37701;SDS011;23548;51.196;6.838;2022-08-02T00:33:18;11.25;;;6.00;;
37701;SDS011;23548;51.196;6.838;2022-08-02T00:35:43;9.48;;;6.20;;
37701;SDS011;23548;51.196;6.838;2022-08-02T00:38:12;10.68;;;6.00;;
37701;SDS011;23548;51.196;6.838;2022-08-02T00:40:39;11.75;;;5.65;;
37701;SDS011;23548;51.196;6.838;2022-08-02T00:45:34;7.65;;;5.25;;
37701;SDS011;23548;51.196;6.838;2022-08-02T00:48:01;9.68;;;5.93;;
37701;SDS011;23548;51.196;6.838;2022-08-02T00:50:28;9.85;;;5.05;;
37701;SDS011;23548;51.196;6.838;2022-08-02T00:52:54;11.10;;;5.60;;
37701;SDS011;23548;51.196;6.838;2022-08-02T00:55:20;9.90;;;6.07;;
37701;SDS011;23548;51.196;6.838;2022-08-02T00:57:46;10.43;;;6.10;;
37701;SDS011;23548;51.196;6.838;2022-08-02T01:00:13;16.45;;;6.00;;
37701;SDS011;23548;51.196;6.838;2022-08-02T01:02:39;10.30;;;5.50;;
37701;SDS011;23548;51.196;6.838;2022-08-02T01:05:05;8.65;;;5.18;;
37701;SDS011;23548;51.196;6.838;2022-08-02T01:07:32;7.55;;;5.50;;
37701;SDS011;23548;51.196;6.838;2022-08-02T01:09:57;12.18;;;5.35;;
37701;SDS011;23548;51.196;6.838;2022-08-02T01:12:24;9.82;;;5.25;;
37701;SDS011;23548;51.196;6.838;2022-08-02T01:14:51;7.07;;;5.43;;
37701;SDS011;23548;51.196;6.838;2022-08-02T01:17:36;8.88;;;5.63;;
37701;SDS011;23548;51.196;6.838;2022-08-02T01:20:05;8.20;;;6.18;;
37701;SDS011;23548;51.196;6.838;2022-08-02T01:37:52;9.60;;;5.82;;
37701;SDS011;23548;51.196;6.838;2022-08-02T01:40:29;10.07;;;6.10;;
37701;SDS011;23548;51.196;6.838;2022-08-02T01:42:57;9.75;;;6.57;;
37701;SDS011;23548;51.196;6.838;2022-08-02T01:45:25;8.27;;;6.15;;
37701;SDS011;23548;51.196;6.838;2022-08-02T01:47:56;9.30;;;5.88;;
37701;SDS011;23548;51.196;6.838;2022-08-02T01:50:28;7.80;;;5.50;;
37701;SDS011;23548;51.196;6.838;2022-08-02T01:52:57;11.40;;;6.32;;
37701;SDS011;23548;51.196;6.838;2022-08-02T01:55:31;12.30;;;6.80;;
37701;SDS011;23548;51.196;6.838;2022-08-02T01:58:02;12.93;;;6.80;;
37701;SDS011;23548;51.196;6.838;2022-08-02T02:00:31;17.83;;;7.70;;
37701;SDS011;23548;51.196;6.838;2022-08-02T02:03:00;10.02;;;7.22;;
37701;SDS011;23548;51.196;6.838;2022-08-02T02:05:28;13.07;;;7.22;;
37701;SDS011;23548;51.196;6.838;2022-08-02T02:07:56;13.25;;;7.15;;
37701;SDS011;23548;51.196;6.838;2022-08-02T02:13:27;12.18;;;6.57;;
37701;SDS011;23548;51.196;6.838;2022-08-02T02:15:53;8.13;;;6.20;;
37701;SDS011;23548;51.196;6.838;2022-08-02T02:18:23;15.75;;;6.55;;
37701;SDS011;23548;51.196;6.838;2022-08-02T02:20:50;13.38;;;7.20;;
37701;SDS011;23548;51.196;6.838;2022-08-02T02:23:16;12.52;;;7.43;;
37701;SDS011;23548;51.196;6.838;2022-08-02T02:25:42;12.40;;;7.82;;
37701;SDS011;23548;51.196;6.838;2022-08-02T02:28:22;11.50;;;7.70;;
37701;SDS011;23548;51.196;6.838;2022-08-02T02:31:01;13.88;;;7.80;;
37701;SDS011;23548;51.196;6.838;2022-08-02T02:33:31;13.73;;;7.85;;
37701;SDS011;23548;51.196;6.838;2022-08-02T02:36:01;13.00;;;7.55;;
37701;SDS011;23548;51.196;6.838;2022-08-02T02:38:31;15.52;;;8.05;;
37701;SDS011;23548;51.196;6.838;2022-08-02T02:40:59;12.45;;;7.35;;
37701;SDS011;23548;51.196;6.838;2022-08-02T02:43:27;15.38;;;7.68;;
37701;SDS011;23548;51.196;6.838;2022-08-02T02:45:55;10.20;;;7.25;;
37701;SDS011;23548;51.196;6.838;2022-08-02T02:48:22;13.07;;;8.27;;
37701;SDS011;23548;51.196;6.838;2022-08-02T02:50:49;11.65;;;7.70;;
37701;SDS011;23548;51.196;6.838;2022-08-02T02:53:15;11.88;;;7.70;;
37701;SDS011;23548;51.196;6.838;2022-08-02T02:55:43;13.85;;;7.63;;
37701;SDS011;23548;51.196;6.838;2022-08-02T02:58:11;12.70;;;7.32;;
37701;SDS011;23548;51.196;6.838;2022-08-02T03:00:37;10.95;;;7.85;;
37701;SDS011;23548;51.196;6.838;2022-08-02T03:03:22;10.77;;;7.80;;
37701;SDS011;23548;51.196;6.838;2022-08-02T03:05:49;9.77;;;6.95;;
37701;SDS011;23548;51.196;6.838;2022-08-02T03:08:15;9.85;;;7.50;;
37701;SDS011;23548;51.196;6.838;2022-08-02T03:10:41;13.68;;;8.05;;
37701;SDS011;23548;51.196;6.838;2022-08-02T03:13:08;14.85;;;8.50;;
37701;SDS011;23548;51.196;6.838;2022-08-02T03:15:35;16.45;;;8.60;;
37701;SDS011;23548;51.196;6.838;2022-08-02T03:18:01;10.35;;;7.90;;
37701;SDS011;23548;51.196;6.838;2022-08-02T03:20:28;15.38;;;8.77;;
37701;SDS011;23548;51.196;6.838;2022-08-02T03:22:53;19.20;;;9.55;;
37701;SDS011;23548;51.196;6.838;2022-08-02T03:25:19;12.45;;;9.10;;
37701;SDS011;23548;51.196;6.838;2022-08-02T03:27:45;17.80;;;9.90;;
37701;SDS011;23548;51.196;6.838;2022-08-02T03:32:40;17.02;;;10.35;;
37701;SDS011;23548;51.196;6.838;2022-08-02T03:35:10;15.57;;;9.43;;
37701;SDS011;23548;51.196;6.838;2022-08-02T03:37:38;13.65;;;8.55;;
37701;SDS011;23548;51.196;6.838;2022-08-02T03:40:05;17.33;;;9.63;;
37701;SDS011;23548;51.196;6.838;2022-08-02T03:42:33;18.08;;;10.52;;
37701;SDS011;23548;51.196;6.838;2022-08-02T03:44:59;14.20;;;9.82;;
37701;SDS011;23548;51.196;6.838;2022-08-02T03:47:27;19.30;;;9.63;;
37701;SDS011;23548;51.196;6.838;2022-08-02T03:49:53;15.07;;;9.55;;
37701;SDS011;23548;51.196;6.838;2022-08-02T03:52:20;16.67;;;9.45;;
37701;SDS011;23548;51.196;6.838;2022-08-02T03:54:48;14.85;;;10.27;;
37701;SDS011;23548;51.196;6.838;2022-08-02T03:57:14;17.02;;;10.38;;
37701;SDS011;23548;51.196;6.838;2022-08-02T03:59:43;17.55;;;11.20;;
37701;SDS011;23548;51.196;6.838;2022-08-02T04:02:10;14.68;;;10.43;;
37701;SDS011;23548;51.196;6.838;2022-08-02T04:04:36;21.38;;;11.27;;
37701;SDS011;23548;51.196;6.838;2022-08-02T04:07:03;13.43;;;11.82;;
37701;SDS011;23548;51.196;6.838;2022-08-02T04:09:30;15.50;;;12.43;;
37701;SDS011;23548;51.196;6.838;2022-08-02T04:11:56;13.75;;;11.57;;
37701;SDS011;23548;51.196;6.838;2022-08-02T04:14:22;15.93;;;12.25;;
37701;SDS011;23548;51.196;6.838;2022-08-02T04:16:52;22.65;;;13.10;;
37701;SDS011;23548;51.196;6.838;2022-08-02T04:19:26;15.30;;;11.43;;
37701;SDS011;23548;51.196;6.838;2022-08-02T04:21:52;16.77;;;12.57;;
37701;SDS011;23548;51.196;6.838;2022-08-02T04:24:24;18.13;;;13.43;;
37701;SDS011;23548;51.196;6.838;2022-08-02T04:26:53;19.13;;;13.43;;
37701;SDS011;23548;51.196;6.838;2022-08-02T04:29:20;14.48;;;12.50;;
37701;SDS011;23548;51.196;6.838;2022-08-02T04:31:47;21.20;;;12.88;;
37701;SDS011;23548;51.196;6.838;2022-08-02T04:34:13;18.52;;;12.77;;
37701;SDS011;23548;51.196;6.838;2022-08-02T04:36:39;21.83;;;13.05;;
37701;SDS011;23548;51.196;6.838;2022-08-02T04:39:05;20.83;;;13.60;;
37701;SDS011;23548;51.196;6.838;2022-08-02T04:41:40;23.42;;;13.80;;
37701;SDS011;23548;51.196;6.838;2022-08-02T04:44:07;17.42;;;13.10;;
37701;SDS011;23548;51.196;6.838;2022-08-02T04:46:34;18.90;;;13.85;;
37701;SDS011;23548;51.196;6.838;2022-08-02T04:49:00;21.95;;;14.52;;
37701;SDS011;23548;51.196;6.838;2022-08-02T04:51:26;22.70;;;14.07;;
37701;SDS011;23548;51.196;6.838;2022-08-02T04:53:52;17.15;;;13.68;;
37701;SDS011;23548;51.196;6.838;2022-08-02T04:56:18;18.05;;;13.07;;
37701;SDS011;23548;51.196;6.838;2022-08-02T04:58:43;16.77;;;14.30;;
37701;SDS011;23548;51.196;6.838;2022-08-02T05:01:09;22.52;;;14.82;;
37701;SDS011;23548;51.196;6.838;2022-08-02T05:03:35;22.33;;;13.70;;
37701;SDS011;23548;51.196;6.838;2022-08-02T05:06:00;19.25;;;13.82;;
37701;SDS011;23548;51.196;6.838;2022-08-02T05:08:26;19.00;;;14.82;;
37701;SDS011;23548;51.196;6.838;2022-08-02T05:10:52;16.20;;;13.45;;
37701;SDS011;23548;51.196;6.838;2022-08-02T05:13:18;18.15;;;13.38;;
37701;SDS011;23548;51.196;6.838;2022-08-02T05:15:46;14.80;;;13.25;;
37701;SDS011;23548;51.196;6.838;2022-08-02T05:18:13;16.02;;;13.43;;
37701;SDS011;23548;51.196;6.838;2022-08-02T05:20:39;17.35;;;13.80;;
37701;SDS011;23548;51.196;6.838;2022-08-02T05:23:04;16.77;;;13.60;;
37701;SDS011;23548;51.196;6.838;2022-08-02T05:25:30;16.35;;;13.80;;
37701;SDS011;23548;51.196;6.838;2022-08-02T05:27:56;15.90;;;13.70;;
37701;SDS011;23548;51.196;6.838;2022-08-02T05:30:21;16.70;;;13.43;;
37701;SDS011;23548;51.196;6.838;2022-08-02T05:32:48;15.00;;;12.88;;
37701;SDS011;23548;51.196;6.838;2022-08-02T05:35:16;17.45;;;12.60;;
37701;SDS011;23548;51.196;6.838;2022-08-02T05:37:43;16.17;;;12.13;;
37701;SDS011;23548;51.196;6.838;2022-08-02T05:40:09;16.38;;;12.88;;
37701;SDS011;23548;51.196;6.838;2022-08-02T05:42:35;15.80;;;13.68;;
37701;SDS011;23548;51.196;6.838;2022-08-02T05:45:01;17.50;;;12.65;;
37701;SDS011;23548;51.196;6.838;2022-08-02T05:47:28;15.82;;;13.10;;
37701;SDS011;23548;51.196;6.838;2022-08-02T05:49:53;20.70;;;15.05;;
37701;SDS011;23548;51.196;6.838;2022-08-02T05:52:19;22.15;;;13.27;;
37701;SDS011;23548;51.196;6.838;2022-08-02T05:55:34;15.32;;;11.98;;
37701;SDS011;23548;51.196;6.838;2022-08-02T05:58:13;16.52;;;12.15;;
37701;SDS011;23548;51.196;6.838;2022-08-02T06:00:54;22.42;;;12.45;;
37701;SDS011;23548;51.196;6.838;2022-08-02T06:03:30;16.50;;;11.45;;
37701;SDS011;23548;51.196;6.838;2022-08-02T06:08:38;14.43;;;11.30;;
37701;SDS011;23548;51.196;6.838;2022-08-02T06:11:07;17.95;;;11.90;;
37701;SDS011;23548;51.196;6.838;2022-08-02T06:13:37;13.05;;;11.48;;
37701;SDS011;23548;51.196;6.838;2022-08-02T06:16:06;15.52;;;11.10;;
37701;SDS011;23548;51.196;6.838;2022-08-02T06:18:32;15.65;;;10.75;;
37701;SDS011;23548;51.196;6.838;2022-08-02T06:21:00;17.05;;;10.52;;
37701;SDS011;23548;51.196;6.838;2022-08-02T06:23:27;14.13;;;10.80;;
37701;SDS011;23548;51.196;6.838;2022-08-02T06:25:54;13.95;;;10.82;;
37701;SDS011;23548;51.196;6.838;2022-08-02T06:28:22;15.10;;;11.07;;
37701;SDS011;23548;51.196;6.838;2022-08-02T06:30:48;12.95;;;10.95;;
37701;SDS011;23548;51.196;6.838;2022-08-02T06:33:15;17.83;;;11.18;;
37701;SDS011;23548;51.196;6.838;2022-08-02T06:35:45;17.85;;;10.32;;
37701;SDS011;23548;51.196;6.838;2022-08-02T06:38:23;15.65;;;9.07;;
37701;SDS011;23548;51.196;6.838;2022-08-02T06:40:55;15.02;;;9.40;;
37701;SDS011;23548;51.196;6.838;2022-08-02T06:46:23;15.50;;;9.88;;
37701;SDS011;23548;51.196;6.838;2022-08-02T06:48:49;12.43;;;8.77;;
37701;SDS011;23548;51.196;6.838;2022-08-02T06:51:15;15.65;;;9.02;;
37701;SDS011;23548;51.196;6.838;2022-08-02T06:53:41;15.75;;;9.82;;
37701;SDS011;23548;51.196;6.838;2022-08-02T06:56:08;14.93;;;8.90;;
37701;SDS011;23548;51.196;6.838;2022-08-02T06:58:33;13.40;;;9.05;;
37701;SDS011;23548;51.196;6.838;2022-08-02T07:00:59;11.15;;;8.30;;
37701;SDS011;23548;51.196;6.838;2022-08-02T07:03:25;12.82;;;8.35;;
37701;SDS011;23548;51.196;6.838;2022-08-02T07:05:52;13.90;;;9.07;;
37701;SDS011;23548;51.196;6.838;2022-08-02T07:08:18;10.43;;;7.43;;
37701;SDS011;23548;51.196;6.838;2022-08-02T07:10:44;15.05;;;8.35;;
37701;SDS011;23548;51.196;6.838;2022-08-02T07:13:10;15.30;;;7.97;;
37701;SDS011;23548;51.196;6.838;2022-08-02T07:15:37;12.75;;;7.80;;
37701;SDS011;23548;51.196;6.838;2022-08-02T07:18:16;12.68;;;7.93;;
37701;SDS011;23548;51.196;6.838;2022-08-02T07:20:42;13.20;;;7.50;;
37701;SDS011;23548;51.196;6.838;2022-08-02T07:23:07;15.27;;;7.65;;
37701;SDS011;23548;51.196;6.838;2022-08-02T07:25:33;11.50;;;7.10;;
37701;SDS011;23548;51.196;6.838;2022-08-02T07:27:59;13.85;;;7.25;;
37701;SDS011;23548;51.196;6.838;2022-08-02T07:30:25;10.82;;;6.78;;
37701;SDS011;23548;51.196;6.838;2022-08-02T07:32:51;12.27;;;6.90;;
37701;SDS011;23548;51.196;6.838;2022-08-02T07:35:16;8.82;;;6.57;;
37701;SDS011;23548;51.196;6.838;2022-08-02T07:37:42;12.52;;;6.93;;
37701;SDS011;23548;51.196;6.838;2022-08-02T07:40:10;10.38;;;6.78;;
37701;SDS011;23548;51.196;6.838;2022-08-02T07:42:37;11.52;;;6.85;;
37701;SDS011;23548;51.196;6.838;2022-08-02T07:45:03;9.23;;;6.80;;
37701;SDS011;23548;51.196;6.838;2022-08-02T07:47:29;10.23;;;6.78;;
37701;SDS011;23548;51.196;6.838;2022-08-02T07:49:55;8.85;;;6.57;;
37701;SDS011;23548;51.196;6.838;2022-08-02T07:52:21;9.98;;;6.68;;
37701;SDS011;23548;51.196;6.838;2022-08-02T07:54:46;9.88;;;6.70;;
37701;SDS011;23548;51.196;6.838;2022-08-02T07:57:12;9.85;;;6.65;;
37701;SDS011;23548;51.196;6.838;2022-08-02T07:59:38;9.85;;;6.00;;
37701;SDS011;23548;51.196;6.838;2022-08-02T08:02:04;14.00;;;6.25;;
37701;SDS011;23548;51.196;6.838;2022-08-02T08:04:29;12.48;;;5.40;;
37701;SDS011;23548;51.196;6.838;2022-08-02T08:06:55;8.20;;;6.70;;
37701;SDS011;23548;51.196;6.838;2022-08-02T08:09:21;9.85;;;5.72;;
37701;SDS011;23548;51.196;6.838;2022-08-02T08:11:47;11.07;;;5.40;;
37701;SDS011;23548;51.196;6.838;2022-08-02T08:14:13;9.15;;;5.13;;
37701;SDS011;23548;51.196;6.838;2022-08-02T08:16:38;11.07;;;5.40;;
37701;SDS011;23548;51.196;6.838;2022-08-02T08:19:04;8.77;;;4.63;;
37701;SDS011;23548;51.196;6.838;2022-08-02T08:21:30;10.23;;;5.50;;
37701;SDS011;23548;51.196;6.838;2022-08-02T08:23:56;8.73;;;6.35;;
37701;SDS011;23548;51.196;6.838;2022-08-02T08:26:22;11.45;;;4.97;;
37701;SDS011;23548;51.196;6.838;2022-08-02T08:28:48;6.95;;;5.68;;
37701;SDS011;23548;51.196;6.838;2022-08-02T08:31:14;8.98;;;6.65;;
37701;SDS011;23548;51.196;6.838;2022-08-02T08:33:40;6.57;;;5.35;;
37701;SDS011;23548;51.196;6.838;2022-08-02T08:36:05;10.32;;;5.85;;
37701;SDS011;23548;51.196;6.838;2022-08-02T08:38:32;6.38;;;5.13;;
37701;SDS011;23548;51.196;6.838;2022-08-02T08:40:57;6.50;;;4.63;;
37701;SDS011;23548;51.196;6.838;2022-08-02T08:43:23;8.90;;;5.32;;
37701;SDS011;23548;51.196;6.838;2022-08-02T08:45:49;11.70;;;5.45;;
37701;SDS011;23548;51.196;6.838;2022-08-02T08:48:16;6.90;;;4.78;;
37701;SDS011;23548;51.196;6.838;2022-08-02T08:53:22;6.75;;;5.72;;
37701;SDS011;23548;51.196;6.838;2022-08-02T08:55:51;7.15;;;5.68;;
37701;SDS011;23548;51.196;6.838;2022-08-02T08:58:20;5.68;;;4.82;;
37701;SDS011;23548;51.196;6.838;2022-08-02T09:00:46;7.50;;;6.22;;
37701;SDS011;23548;51.196;6.838;2022-08-02T09:03:13;8.10;;;4.93;;
37701;SDS011;23548;51.196;6.838;2022-08-02T09:05:39;9.20;;;6.55;;
37701;SDS011;23548;51.196;6.838;2022-08-02T09:08:10;13.32;;;6.38;;
37701;SDS011;23548;51.196;6.838;2022-08-02T09:10:38;7.72;;;5.90;;
37701;SDS011;23548;51.196;6.838;2022-08-02T09:15:44;10.80;;;5.78;;
37701;SDS011;23548;51.196;6.838;2022-08-02T09:18:30;6.80;;;5.13;;
37701;SDS011;23548;51.196;6.838;2022-08-02T09:20:58;7.22;;;5.63;;
37701;SDS011;23548;51.196;6.838;2022-08-02T09:23:32;7.75;;;4.72;;
37701;SDS011;23548;51.196;6.838;2022-08-02T09:26:18;5.45;;;4.95;;
37701;SDS011;23548;51.196;6.838;2022-08-02T09:28:50;6.95;;;5.18;;
37701;SDS011;23548;51.196;6.838;2022-08-02T09:31:18;7.13;;;5.93;;
37701;SDS011;23548;51.196;6.838;2022-08-02T09:33:50;9.00;;;5.05;;
37701;SDS011;23548;51.196;6.838;2022-08-02T09:36:20;7.25;;;4.60;;
37701;SDS011;23548;51.196;6.838;2022-08-02T09:38:53;7.63;;;5.25;;
37701;SDS011;23548;51.196;6.838;2022-08-02T09:41:22;7.93;;;5.22;;
37701;SDS011;23548;51.196;6.838;2022-08-02T09:43:55;6.30;;;5.57;;
37701;SDS011;23548;51.196;6.838;2022-08-02T09:46:23;7.80;;;5.07;;
37701;SDS011;23548;51.196;6.838;2022-08-02T09:48:58;5.97;;;4.35;;
37701;SDS011;23548;51.196;6.838;2022-08-02T09:51:29;10.25;;;5.03;;
37701;SDS011;23548;51.196;6.838;2022-08-02T09:53:59;6.78;;;4.22;;
37701;SDS011;23548;51.196;6.838;2022-08-02T09:56:26;6.30;;;4.40;;
37701;SDS011;23548;51.196;6.838;2022-08-02T09:59:05;9.43;;;3.85;;
37701;SDS011;23548;51.196;6.838;2022-08-02T10:01:33;7.40;;;4.03;;
37701;SDS011;23548;51.196;6.838;2022-08-02T10:04:00;8.70;;;4.00;;
37701;SDS011;23548;51.196;6.838;2022-08-02T10:06:27;7.00;;;4.28;;
37701;SDS011;23548;51.196;6.838;2022-08-02T10:08:54;6.63;;;3.97;;
37701;SDS011;23548;51.196;6.838;2022-08-02T10:11:23;9.52;;;3.53;;
37701;SDS011;23548;51.196;6.838;2022-08-02T10:13:51;4.72;;;3.70;;
37701;SDS011;23548;51.196;6.838;2022-08-02T10:16:18;5.75;;;3.53;;
37701;SDS011;23548;51.196;6.838;2022-08-02T10:18:48;7.05;;;4.13;;
37701;SDS011;23548;51.196;6.838;2022-08-02T10:21:26;7.97;;;4.03;;
37701;SDS011;23548;51.196;6.838;2022-08-02T10:26:37;6.05;;;3.40;;
37701;SDS011;23548;51.196;6.838;2022-08-02T10:29:04;6.40;;;3.35;;
37701;SDS011;23548;51.196;6.838;2022-08-02T10:31:35;3.88;;;3.50;;
37701;SDS011;23548;51.196;6.838;2022-08-02T10:34:23;8.43;;;3.45;;
37701;SDS011;23548;51.196;6.838;2022-08-02T10:36:53;5.30;;;3.03;;
37701;SDS011;23548;51.196;6.838;2022-08-02T10:39:20;4.03;;;2.95;;
37701;SDS011;23548;51.196;6.838;2022-08-02T10:41:47;7.22;;;2.90;;
37701;SDS011;23548;51.196;6.838;2022-08-02T10:44:27;7.03;;;3.05;;
37701;SDS011;23548;51.196;6.838;2022-08-02T10:49:59;6.65;;;2.85;;
37701;SDS011;23548;51.196;6.838;2022-08-02T10:52:28;4.38;;;2.70;;
37701;SDS011;23548;51.196;6.838;2022-08-02T10:54:59;2.78;;;2.40;;
37701;SDS011;23548;51.196;6.838;2022-08-02T10:57:30;3.53;;;2.38;;
37701;SDS011;23548;51.196;6.838;2022-08-02T11:00:03;5.60;;;2.80;;
37701;SDS011;23548;51.196;6.838;2022-08-02T11:05:58;3.28;;;2.47;;
37701;SDS011;23548;51.196;6.838;2022-08-02T11:08:18;4.70;;;2.50;;
37701;SDS011;23548;51.196;6.838;2022-08-02T11:10:45;4.70;;;2.45;;
37701;SDS011;23548;51.196;6.838;2022-08-02T11:13:12;3.03;;;2.72;;
37701;SDS011;23548;51.196;6.838;2022-08-02T11:15:46;4.13;;;2.60;;
37701;SDS011;23548;51.196;6.838;2022-08-02T11:19:00;4.82;;;2.72;;
37701;SDS011;23548;51.196;6.838;2022-08-02T11:21:33;6.88;;;2.53;;
37701;SDS011;23548;51.196;6.838;2022-08-02T11:27:02;4.35;;;2.70;;
37701;SDS011;23548;51.196;6.838;2022-08-02T11:29:33;4.32;;;2.80;;
37701;SDS011;23548;51.196;6.838;2022-08-02T11:32:04;7.43;;;2.75;;
37701;SDS011;23548;51.196;6.838;2022-08-02T11:34:52;3.38;;;2.58;;
37701;SDS011;23548;51.196;6.838;2022-08-02T11:37:28;2.92;;;2.10;;
37701;SDS011;23548;51.196;6.838;2022-08-02T11:40:02;2.90;;;1.83;;
37701;SDS011;23548;51.196;6.838;2022-08-02T11:42:30;5.15;;;2.55;;
37701;SDS011;23548;51.196;6.838;2022-08-02T11:45:00;5.47;;;2.70;;
37701;SDS011;23548;51.196;6.838;2022-08-02T11:47:27;8.40;;;2.50;;
37701;SDS011;23548;51.196;6.838;2022-08-02T11:52:34;7.63;;;3.03;;
37701;SDS011;23548;51.196;6.838;2022-08-02T11:55:01;4.85;;;2.53;;
37701;SDS011;23548;51.196;6.838;2022-08-02T11:57:27;7.25;;;2.50;;
37701;SDS011;23548;51.196;6.838;2022-08-02T11:59:54;5.45;;;2.40;;
37701;SDS011;23548;51.196;6.838;2022-08-02T12:02:25;9.63;;;2.85;;
37701;SDS011;23548;51.196;6.838;2022-08-02T12:04:56;4.55;;;2.42;;
37701;SDS011;23548;51.196;6.838;2022-08-02T12:07:34;5.47;;;2.45;;
37701;SDS011;23548;51.196;6.838;2022-08-02T12:10:35;3.10;;;2.22;;
37701;SDS011;23548;51.196;6.838;2022-08-02T12:12:54;4.00;;;2.53;;
37701;SDS011;23548;51.196;6.838;2022-08-02T12:15:29;5.13;;;2.72;;
37701;SDS011;23548;51.196;6.838;2022-08-02T12:18:09;5.35;;;2.50;;
37701;SDS011;23548;51.196;6.838;2022-08-02T12:20:57;5.13;;;2.63;;
37701;SDS011;23548;51.196;6.838;2022-08-02T12:23:23;3.42;;;2.58;;
37701;SDS011;23548;51.196;6.838;2022-08-02T12:25:59;4.55;;;2.63;;
37701;SDS011;23548;51.196;6.838;2022-08-02T12:28:32;10.05;;;2.40;;
37701;SDS011;23548;51.196;6.838;2022-08-02T12:30:59;5.03;;;2.70;;
37701;SDS011;23548;51.196;6.838;2022-08-02T12:33:27;10.82;;;2.95;;
37701;SDS011;23548;51.196;6.838;2022-08-02T12:36:13;5.38;;;2.33;;
37701;SDS011;23548;51.196;6.838;2022-08-02T12:38:55;4.65;;;2.55;;
37701;SDS011;23548;51.196;6.838;2022-08-02T12:41:22;6.25;;;2.97;;
37701;SDS011;23548;51.196;6.838;2022-08-02T12:43:50;3.80;;;2.30;;
37701;SDS011;23548;51.196;6.838;2022-08-02T12:46:17;3.92;;;2.20;;
37701;SDS011;23548;51.196;6.838;2022-08-02T12:48:46;5.75;;;2.40;;
37701;SDS011;23548;51.196;6.838;2022-08-02T12:51:36;5.35;;;2.60;;
37701;SDS011;23548;51.196;6.838;2022-08-02T12:56:41;3.80;;;2.40;;
37701;SDS011;23548;51.196;6.838;2022-08-02T12:59:06;3.15;;;2.20;;
37701;SDS011;23548;51.196;6.838;2022-08-02T13:01:33;2.80;;;1.92;;
37701;SDS011;23548;51.196;6.838;2022-08-02T13:03:59;9.45;;;2.47;;
37701;SDS011;23548;51.196;6.838;2022-08-02T13:06:25;4.72;;;2.15;;
37701;SDS011;23548;51.196;6.838;2022-08-02T13:08:51;5.15;;;2.90;;
37701;SDS011;23548;51.196;6.838;2022-08-02T13:11:19;3.00;;;2.47;;
37701;SDS011;23548;51.196;6.838;2022-08-02T13:13:46;6.30;;;2.50;;
37701;SDS011;23548;51.196;6.838;2022-08-02T13:16:12;6.38;;;2.90;;
37701;SDS011;23548;51.196;6.838;2022-08-02T13:18:38;5.50;;;2.80;;
37701;SDS011;23548;51.196;6.838;2022-08-02T13:21:04;4.78;;;2.72;;
37701;SDS011;23548;51.196;6.838;2022-08-02T13:23:31;7.63;;;2.65;;
37701;SDS011;23548;51.196;6.838;2022-08-02T13:25:58;5.63;;;2.90;;
37701;SDS011;23548;51.196;6.838;2022-08-02T13:28:25;5.97;;;2.67;;
37701;SDS011;23548;51.196;6.838;2022-08-02T13:30:51;5.97;;;2.80;;
37701;SDS011;23548;51.196;6.838;2022-08-02T13:33:16;3.13;;;2.58;;
37701;SDS011;23548;51.196;6.838;2022-08-02T13:35:43;3.35;;;2.60;;
37701;SDS011;23548;51.196;6.838;2022-08-02T13:38:09;5.22;;;2.70;;
37701;SDS011;23548;51.196;6.838;2022-08-02T13:40:35;6.00;;;2.70;;
37701;SDS011;23548;51.196;6.838;2022-08-02T13:43:19;5.30;;;3.10;;
37701;SDS011;23548;51.196;6.838;2022-08-02T13:45:45;4.53;;;2.60;;
37701;SDS011;23548;51.196;6.838;2022-08-02T13:48:10;6.35;;;2.67;;
37701;SDS011;23548;51.196;6.838;2022-08-02T13:50:36;15.10;;;3.03;;
37701;SDS011;23548;51.196;6.838;2022-08-02T13:53:02;4.28;;;2.75;;
37701;SDS011;23548;51.196;6.838;2022-08-02T13:55:27;6.40;;;2.92;;
37701;SDS011;23548;51.196;6.838;2022-08-02T13:57:53;3.42;;;2.38;;
37701;SDS011;23548;51.196;6.838;2022-08-02T14:00:19;7.57;;;2.65;;
37701;SDS011;23548;51.196;6.838;2022-08-02T14:02:45;4.00;;;2.60;;
37701;SDS011;23548;51.196;6.838;2022-08-02T14:05:11;7.78;;;3.05;;
37701;SDS011;23548;51.196;6.838;2022-08-02T14:07:37;4.90;;;2.30;;
37701;SDS011;23548;51.196;6.838;2022-08-02T14:10:03;5.65;;;2.50;;
37701;SDS011;23548;51.196;6.838;2022-08-02T14:12:29;4.60;;;2.70;;
37701;SDS011;23548;51.196;6.838;2022-08-02T14:14:54;10.98;;;2.80;;
37701;SDS011;23548;51.196;6.838;2022-08-02T14:17:20;3.17;;;2.25;;
37701;SDS011;23548;51.196;6.838;2022-08-02T14:19:46;3.65;;;2.70;;
37701;SDS011;23548;51.196;6.838;2022-08-02T14:22:12;3.55;;;2.60;;
37701;SDS011;23548;51.196;6.838;2022-08-02T14:24:38;5.93;;;2.20;;
37701;SDS011;23548;51.196;6.838;2022-08-02T14:27:05;5.07;;;2.05;;
37701;SDS011;23548;51.196;6.838;2022-08-02T14:29:31;4.35;;;2.30;;
37701;SDS011;23548;51.196;6.838;2022-08-02T14:31:56;9.45;;;2.47;;
37701;SDS011;23548;51.196;6.838;2022-08-02T14:34:22;3.97;;;2.50;;
37701;SDS011;23548;51.196;6.838;2022-08-02T14:36:48;4.47;;;2.17;;
37701;SDS011;23548;51.196;6.838;2022-08-02T14:39:14;3.42;;;2.28;;
37701;SDS011;23548;51.196;6.838;2022-08-02T14:41:40;5.85;;;2.30;;
37701;SDS011;23548;51.196;6.838;2022-08-02T14:44:05;6.68;;;2.28;;
37701;SDS011;23548;51.196;6.838;2022-08-02T14:46:36;4.88;;;2.50;;
37701;SDS011;23548;51.196;6.838;2022-08-02T14:49:04;4.57;;;2.20;;
37701;SDS011;23548;51.196;6.838;2022-08-02T14:51:32;4.28;;;2.35;;
37701;SDS011;23548;51.196;6.838;2022-08-02T14:53:59;5.25;;;2.10;;
37701;SDS011;23548;51.196;6.838;2022-08-02T14:56:25;2.90;;;2.10;;
37701;SDS011;23548;51.196;6.838;2022-08-02T14:58:51;8.18;;;2.55;;
37701;SDS011;23548;51.196;6.838;2022-08-02T15:01:17;4.28;;;2.40;;
37701;SDS011;23548;51.196;6.838;2022-08-02T15:03:43;6.28;;;2.20;;
37701;SDS011;23548;51.196;6.838;2022-08-02T15:06:09;4.47;;;2.20;;
37701;SDS011;23548;51.196;6.838;2022-08-02T15:08:35;5.60;;;2.47;;
37701;SDS011;23548;51.196;6.838;2022-08-02T15:11:01;5.03;;;2.33;;
37701;SDS011;23548;51.196;6.838;2022-08-02T15:13:27;3.85;;;2.30;;
37701;SDS011;23548;51.196;6.838;2022-08-02T15:15:53;3.20;;;2.17;;
37701;SDS011;23548;51.196;6.838;2022-08-02T15:18:18;4.43;;;2.20;;
37701;SDS011;23548;51.196;6.838;2022-08-02T15:20:44;3.22;;;2.25;;
37701;SDS011;23548;51.196;6.838;2022-08-02T15:23:13;4.88;;;2.00;;
37701;SDS011;23548;51.196;6.838;2022-08-02T15:25:40;5.13;;;2.40;;
37701;SDS011;23548;51.196;6.838;2022-08-02T15:28:06;3.10;;;2.03;;
37701;SDS011;23548;51.196;6.838;2022-08-02T15:30:32;2.60;;;2.20;;
37701;SDS011;23548;51.196;6.838;2022-08-02T15:32:59;4.63;;;2.03;;
37701;SDS011;23548;51.196;6.838;2022-08-02T15:35:25;4.18;;;2.17;;
37701;SDS011;23548;51.196;6.838;2022-08-02T15:37:51;4.38;;;2.00;;